Capitol Logistics 2519


KMEM
Memphis International Airport
Memphis, Tennessee, US
KOAK
Metropolitan Oakland International Airport
Oakland, California, US

Route Details

Aircraft Information
Primary: Boeing 747-400BCF
Backup: Boeing 767-300BDSF
Date Restrictions
Between:Nov 16, 2019
Dec 31, 2019
Route Data
Distance: 1561nm
Sched. Duration: 3h 49m
Avg. Duration: 4h 02m (+53m)
Times Flown: 3
Recm'd Route: ZUMIT4 FOXOM KM33I KM36G TUL HALEN DVC ROCCY Q164 KITTN JSICA MONOH OAKES2
Planned Altitude: 34,000ft
Origin Wx: KMEM 270154Z 33013KT 10SM OVC050 03/M03 A3027 RMK AO2 SLP250 T00331033
Dest. Wx: KOAK 270153Z 30007KT 10SM FEW200 18/09 A3025 RMK AO2 SLP245 T01830089
Notes: SEASONAL FLIGHT | FEDEX SURGE OPS CONTRACT

Financial History
Total Freight: 422,876lbs
Average Load: 140,959lbs/flt
Fuel Used: 196,714lbs
Avg. Fuel Used: 65,571lbs/flt
Fuel Expense: $206,550
Avg. Fuel Expense: $68,850
Avg. Fuel Cost: $1.05/lbs
Total Gross Income: $799,236
Pilot Pay: $537
Total Expenses: $86,473
Total Revenue: $504,101
Average Revenue: $266,411.88